FW7875 Weather Reports


Display with metric or nautical units.
time (UTC)temp
F
wind
direction
speed
MPH
gust
MPH
rain 1hr
in
rain 24hr
in
rain mn
in
humidity
%
barometer
mb
20220626175014 70 269 5.0 11.0 0.00 0.00 0.00 42 1029.6
20220626174514 70 247 8.0 16.0 0.00 0.00 0.00 41 1029.5
20220626174017 71 281 10.0 16.0 0.00 0.00 0.00 40 1029.4
20220626173517 71 275 6.0 14.0 0.00 0.00 0.00 40 1029.5
20220626173018 72 264 9.0 14.0 0.00 0.00 0.00 39 1029.5
20220626172513 73 235 8.0 17.0 0.00 0.00 0.00 39 1029.5
20220626172017 73 241 9.0 17.0 0.00 0.00 0.00 38 1029.5
20220626171517 72 278 7.0 12.0 0.00 0.00 0.00 39 1029.6
20220626171017 72 280 5.0 12.0 0.00 0.00 0.00 42 1029.6
20220626170514 72 261 7.0 13.0 0.00 0.00 0.00 39 1029.8
20220626170014 71 281 6.0 13.0 0.00 0.00 0.00 40 1029.8
20220626165514 71 268 9.0 12.0 0.00 0.00 0.00 40 1029.8
20220626165017 70 284 4.0 9.0 0.00 0.00 0.00 42 1029.8
20220626164513 70 302 5.0 9.0 0.00 0.00 0.00 42 1029.9
20220626164016 70 301 2.0 7.0 0.00 0.00 0.00 43 1029.9
20220626163513 70 318 3.0 7.0 0.00 0.00 0.00 43 1029.8
20220626163022 70 287 5.0 8.0 0.00 0.00 0.00 42 1030.0
20220626162514 70 300 4.0 9.0 0.00 0.00 0.00 43 1030.0
20220626162013 70 287 6.0 10.0 0.00 0.00 0.00 42 1029.9
20220626161515 71 283 6.0 10.0 0.00 0.00 0.00 42 1029.8
20220626161015 71 274 3.0 5.0 0.00 0.00 0.00 42 1029.8
20220626160513 71 262 3.0 10.0 0.00 0.00 0.00 40 1030.0
20220626160013 72 218 5.0 10.0 0.00 0.00 0.00 40 1029.9
20220626155515 72 187 2.0 8.0 0.00 0.00 0.00 40 1029.9
20220626155014 73 224 5.0 8.0 0.00 0.00 0.00 40 1030.0
20220626154513 72 257 1.0 5.0 0.00 0.00 0.00 41 1029.9
20220626154018 71 210 2.0 8.0 0.00 0.00 0.00 40 1029.9
20220626153513 71 214 4.0 8.0 0.00 0.00 0.00 41 1030.0
20220626153017 72 248 1.0 6.0 0.00 0.00 0.00 40 1030.0
20220626152517 70 0 0.0 4.0 0.00 0.00 0.00 42 1030.0
20220626152013 69 271 1.0 7.0 0.00 0.00 0.00 43 1030.0
20220626151514 69 270 3.0 7.0 0.00 0.00 0.00 44 1029.9
20220626151014 69 254 1.0 4.0 0.00 0.00 0.00 44 1030.0
20220626150516 68 80 1.0 5.0 0.00 0.00 0.00 45 1029.9
20220626150014 68 337 3.0 5.0 0.00 0.00 0.00 45 1030.0
20220626145513 68 12 2.0 6.0 0.00 0.00 0.00 46 1030.0
20220626145013 68 7 4.0 7.0 0.00 0.00 0.00 46 1030.0
20220626144513 68 340 4.0 7.0 0.00 0.00 0.00 47 1029.9
20220626144014 68 315 1.0 5.0 0.00 0.00 0.00 46 1029.9
20220626143514 67 41 3.0 6.0 0.00 0.00 0.00 45 1029.8
20220626143013 67 70 3.0 6.0 0.00 0.00 0.00 46 1029.9
20220626142513 67 62 2.0 3.0 0.00 0.00 0.00 45 1029.7
20220626142013 66 103 1.0 4.0 0.00 0.00 0.00 47 1029.8
20220626141523 66 75 2.0 5.0 0.00 0.00 0.00 48 1029.9
20220626141014 66 79 3.0 5.0 0.00 0.00 0.00 48 1029.7
20220626140513 65 89 4.0 5.0 0.00 0.00 0.00 49 1029.8
20220626140020 64 87 3.0 6.0 0.00 0.00 0.00 51 1029.8
20220626135514 64 98 4.0 6.0 0.00 0.00 0.00 51 1029.9
20220626135014 63 94 4.0 6.0 0.00 0.00 0.00 51 1029.7
20220626134514 63 98 4.0 9.0 0.00 0.00 0.00 51 1029.6
20220626134017 63 96 6.0 9.0 0.00 0.00 0.00 51 1029.6
20220626133514 63 102 6.0 9.0 0.00 0.00 0.00 51 1029.6
20220626133014 63 84 6.0 9.0 0.00 0.00 0.00 51 1029.6
20220626132513 62 107 5.0 8.0 0.00 0.00 0.00 54 1029.4
20220626132017 62 113 6.0 8.0 0.00 0.00 0.00 54 1029.4
20220626131514 61 91 5.0 7.0 0.00 0.00 0.00 54 1029.4
20220626131013 60 72 5.0 6.0 0.00 0.00 0.00 57 1029.4
20220626130515 60 65 3.0 6.0 0.00 0.00 0.00 56 1029.4
20220626130018 59 58 4.0 6.0 0.00 0.00 0.00 56 1029.4
20220626125514 59 70 4.0 7.0 0.00 0.00 0.00 57 1029.3
20220626125015 59 70 5.0 7.0 0.00 0.00 0.00 58 1029.3
20220626124517 58 78 5.0 7.0 0.00 0.00 0.00 59 1029.3
20220626124014 58 75 6.0 9.0 0.00 0.00 0.00 59 1029.4
20220626123514 57 79 7.0 10.0 0.00 0.00 0.00 59 1029.1
20220626123020 57 84 7.0 10.0 0.00 0.00 0.00 59 1029.1
20220626122517 57 84 7.0 9.0 0.00 0.00 0.00 58 1029.1
20220626122014 56 107 5.0 7.0 0.00 0.00 0.00 60 1028.9
20220626121523 56 84 5.0 7.0 0.00 0.00 0.00 60 1028.9
20220626121016 56 95 4.0 6.0 0.00 0.00 0.00 60 1028.9
20220626120514 56 110 3.0 4.0 0.00 0.00 0.00 59 1028.9
20220626120014 57 90 2.0 3.0 0.00 0.00 0.00 59 1028.8
20220626115513 57 91 2.0 3.0 0.00 0.00 0.00 58 1028.7
20220626115014 57 60 2.0 4.0 0.00 0.00 0.00 57 1028.8
20220626114514 57 41 3.0 4.0 0.00 0.00 0.00 58 1028.7
20220626114014 57 58 2.0 6.0 0.00 0.00 0.00 58 1028.7
20220626113515 58 83 3.0 6.0 0.00 0.00 0.00 57 1028.6
20220626113015 58 76 4.0 6.0 0.00 0.00 0.00 57 1028.7
20220626112515 58 66 2.0 4.0 0.00 0.00 0.00 55 1028.7
20220626112018 59 115 2.0 5.0 0.00 0.00 0.00 54 1028.6
20220626111514 59 110 3.0 5.0 0.00 0.00 0.00 54 1028.5
20220626111013 59 46 4.0 5.0 0.00 0.00 0.00 53 1028.5
20220626110514 59 56 3.0 5.0 0.00 0.00 0.00 53 1028.5
20220626110014 60 66 3.0 8.0 0.00 0.00 0.00 52 1028.3
20220626105514 60 75 6.0 8.0 0.00 0.00 0.00 51 1028.4
20220626105015 60 82 3.0 5.0 0.00 0.00 0.00 53 1028.4
20220626104514 61 73 2.0 3.0 0.00 0.00 0.00 51 1028.3
20220626104013 61 0 0.0 2.0 0.00 0.00 0.00 50 1028.4
20220626103513 61 347 1.0 3.0 0.00 0.00 0.00 49 1028.4
20220626103013 61 347 2.0 3.0 0.00 0.00 0.00 50 1028.4
20220626102512 61 14 2.0 5.0 0.00 0.00 0.00 50 1028.3
20220626102013 61 14 3.0 5.0 0.00 0.00 0.00 51 1028.3
20220626101516 60 47 2.0 4.0 0.00 0.00 0.00 52 1028.2
20220626101012 61 49 2.0 3.0 0.00 0.00 0.00 51 1028.2
20220626100512 62 338 2.0 3.0 0.00 0.00 0.00 49 1028.2
20220626100013 62 20 2.0 3.0 0.00 0.00 0.00 49 1028.2
20220626095513 62 0 0.0 5.0 0.00 0.00 0.00 49 1028.1
20220626095013 63 20 2.0 6.0 0.00 0.00 0.00 48 1028.1
20220626094513 62 23 4.0 6.0 0.00 0.00 0.00 49 1028.0
20220626094014 62 355 3.0 6.0 0.00 0.00 0.00 49 1028.0
20220626093513 62 53 3.0 5.0 0.00 0.00 0.00 50 1028.0
20220626093015 62 283 2.0 11.0 0.00 0.00 0.00 49 1028.1
20220626092513 63 66 7.0 11.0 0.00 0.00 0.00 49 1027.9
20220626092013 62 48 6.0 9.0 0.00 0.00 0.00 50 1027.9
20220626091524 61 97 4.0 8.0 0.00 0.00 0.00 54 1027.8
20220626091013 60 39 5.0 7.0 0.00 0.00 0.00 52 1027.8
20220626090514 61 86 4.0 7.0 0.00 0.00 0.00 51 1027.9
20220626090012 62 62 4.0 7.0 0.00 0.00 0.00 51 1027.8
20220626085514 63 68 4.0 8.0 0.00 0.00 0.00 51 1027.7
20220626085013 63 95 5.0 8.0 0.00 0.00 0.00 52 1027.8
20220626084513 61 78 3.0 6.0 0.00 0.00 0.00 53 1027.7
20220626084012 61 68 3.0 4.0 0.00 0.00 0.00 51 1027.8
20220626083513 61 46 3.0 4.0 0.00 0.00 0.00 49 1027.8
20220626083019 61 51 3.0 5.0 0.00 0.00 0.00 49 1027.9
20220626082513 63 45 3.0 5.0 0.00 0.00 0.00 47 1027.9
20220626082013 64 71 2.0 7.0 0.00 0.00 0.00 47 1027.8
20220626081513 65 104 2.0 8.0 0.00 0.00 0.00 47 1027.9
20220626081013 64 190 4.0 8.0 0.00 0.00 0.00 47 1027.9
20220626080517 65 165 3.0 8.0 0.00 0.00 0.00 46 1027.9
20220626080016 65 152 4.0 8.0 0.00 0.00 0.00 46 1027.8
20220626075514 65 155 6.0 8.0 0.00 0.00 0.00 46 1027.8
20220626075013 65 168 5.0 8.0 0.00 0.00 0.00 46 1027.8
20220626074515 65 163 5.0 10.0 0.00 0.00 0.00 46 1027.8
20220626074014 65 154 6.0 10.0 0.00 0.00 0.00 45 1027.8
20220626073513 65 184 5.0 10.0 0.00 0.00 0.00 45 1027.8
20220626073014 65 209 6.0 10.0 0.00 0.00 0.00 45 1027.9
20220626072514 65 223 4.0 7.0 0.00 0.00 0.00 44 1027.8
20220626072014 66 209 4.0 6.0 0.00 0.00 0.00 43 1027.9
20220626071524 66 207 3.0 8.0 0.00 0.00 0.00 44 1027.8
20220626071017 65 226 4.0 8.0 0.00 0.00 0.00 43 1027.7
20220626070513 65 233 3.0 5.0 0.00 0.00 0.00 44 1027.8
20220626070014 65 182 1.0 3.0 0.00 0.00 0.00 44 1027.8
20220626065513 65 256 0.0 2.0 0.00 0.00 0.00 44 1027.9
20220626065013 65 0 0.0 3.0 0.00 0.00 0.00 44 1027.7
20220626064521 65 122 0.0 3.0 0.00 0.00 0.00 44 1027.7
20220626064012 65 135 2.0 3.0 0.00 0.00 0.00 43 1027.6
20220626063514 66 145 2.0 8.0 0.00 0.00 0.00 43 1027.8
20220626063015 66 119 4.0 8.0 0.00 0.00 0.00 42 1027.6
20220626062514 67 127 4.0 11.0 0.00 0.00 0.00 42 1027.6
20220626062016 67 155 6.0 11.0 0.00 0.00 0.00 41 1027.4
20220626061514 67 145 6.0 10.0 0.00 0.00 0.00 41 1027.5
20220626061014 67 136 6.0 14.0 0.00 0.00 0.00 40 1027.5
20220626060514 67 134 6.0 14.0 0.00 0.00 0.00 39 1027.4
20220626060012 67 170 6.0 11.0 0.00 0.00 0.00 39 1027.3
20220626055514 67 112 7.0 9.0 0.00 0.00 0.00 38 1027.3
20220626055014 67 125 5.0 7.0 0.00 0.00 0.00 38 1027.4
20220626054521 66 149 3.0 6.0 0.00 0.00 0.00 40 1027.3
20220626054012 67 153 3.0 4.0 0.00 0.00 0.00 40 1027.2
20220626053516 67 137 3.0 4.0 0.00 0.00 0.00 38 1027.0
20220626053013 68 109 1.0 3.0 0.00 0.00 0.00 37 1027.0
20220626052513 69 0 0.0 3.0 0.00 0.00 0.00 35 1026.9
20220626052016 68 94 2.0 3.0 0.00 0.00 0.00 36 1026.8
20220626051513 68 142 2.0 3.0 0.00 0.00 0.00 37 1026.8
20220626051012 68 143 1.0 3.0 0.00 0.00 0.00 37 1026.7
20220626050512 69 127 1.0 5.0 0.00 0.00 0.00 36 1026.7
20220626050019 69 82 4.0 5.0 0.00 0.00 0.00 35 1026.6
20220626045515 68 96 2.0 3.0 0.00 0.00 0.00 36 1026.6
20220626045014 68 86 1.0 4.0 0.00 0.00 0.00 36 1026.5
20220626044513 68 68 2.0 4.0 0.00 0.00 0.00 36 1026.5
20220626044013 68 41 2.0 4.0 0.00 0.00 0.00 38 1026.3
20220626043513 68 99 2.0 7.0 0.00 0.00 0.00 37 1026.3
20220626043018 69 113 4.0 7.0 0.00 0.00 0.00 37 1026.3
20220626042512 69 100 4.0 5.0 0.00 0.00 0.00 38 1026.1
20220626042013 70 131 2.0 4.0 0.00 0.00 0.00 35 1025.9
20220626041513 71 0 0.0 3.0 0.00 0.00 0.00 31 1026.0
20220626041013 71 148 1.0 4.0 0.00 0.00 0.00 32 1025.8
20220626040518 70 161 2.0 4.0 0.00 0.00 0.00 32 1025.8
20220626040012 70 117 1.0 4.0 0.00 0.00 0.00 33 1025.6
20220626035517 70 135 3.0 4.0 0.00 0.00 0.00 33 1025.6
20220626035015 70 203 3.0 6.0 0.00 0.00 0.00 33 1025.6
20220626034525 71 277 3.0 11.0 0.00 0.00 0.00 34 1025.5
20220626034013 71 244 6.0 11.0 0.00 0.00 0.00 32 1025.2
20220626033512 71 277 8.0 11.0 0.00 0.00 0.00 32 1025.0
20220626033013 71 221 3.0 6.0 0.00 0.00 0.00 32 1024.9
20220626032514 72 127 4.0 6.0 0.00 0.00 0.00 30 1024.7
20220626032012 73 91 4.0 5.0 0.00 0.00 0.00 29 1024.7
20220626031514 74 98 2.0 3.0 0.00 0.00 0.00 26 1024.5
20220626031012 73 37 0.0 2.0 0.00 0.00 0.00 26 1024.6
20220626030512 74 0 0.0 4.0 0.00 0.00 0.00 27 1024.5
20220626030012 74 0 0.0 6.0 0.00 0.00 0.00 26 1024.4
20220626025513 75 70 3.0 6.0 0.00 0.00 0.00 26 1024.4
20220626025012 74 121 2.0 4.0 0.00 0.00 0.00 25 1024.4
20220626024512 74 131 1.0 5.0 0.00 0.00 0.00 26 1024.3
20220626024011 74 299 1.0 6.0 0.00 0.00 0.00 27 1024.3
20220626023513 73 271 5.0 6.0 0.00 0.00 0.00 28 1024.3
20220626023014 73 280 1.0 4.0 0.00 0.00 0.00 29 1024.2
20220626022512 73 86 1.0 10.0 0.00 0.00 0.00 28 1024.1
20220626022014 74 84 5.0 11.0 0.00 0.00 0.00 29 1024.0
20220626021514 74 94 7.0 13.0 0.00 0.00 0.00 27 1023.8
20220626021015 74 94 8.0 14.0 0.00 0.00 0.00 28 1023.8
20220626020516 74 98 11.0 14.0 0.00 0.00 0.00 27 1023.8
20220626020012 74 98 7.0 9.0 0.00 0.00 0.00 29 1023.7
20220626015512 75 86 2.0 5.0 0.00 0.00 0.00 26 1023.7
20220626015012 75 53 2.0 6.0 0.00 0.00 0.00 26 1023.7
20220626014517 76 51 4.0 9.0 0.00 0.00 0.00 26 1023.6
20220626014014 77 24 6.0 15.0 0.00 0.00 0.00 21 1023.5
20220626013515 77 13 7.0 16.0 0.00 0.00 0.00 21 1023.4
20220626013014 76 6 10.0 16.0 0.00 0.00 0.00 23 1023.4
20220626012513 76 39 9.0 19.0 0.00 0.00 0.00 23 1023.5
20220626012013 76 42 13.0 20.0 0.00 0.00 0.00 24 1023.4
20220626011519 76 33 13.0 20.0 0.00 0.00 0.00 24 1023.2
20220626011012 78 53 5.0 9.0 0.00 0.00 0.00 23 1023.2
20220626010513 79 49 3.0 7.0 0.00 0.00 0.00 21 1023.4
20220626010012 79 0 0.0 0.0 0.00 0.00 0.00 21 1023.2
20220626005513 79 0 0.0 1.0 0.00 0.00 0.00 21 1023.2
20220626005015 79 162 1.0 3.0 0.00 0.00 0.00 20 1023.1
20220626004513 79 166 1.0 4.0 0.00 0.00 0.00 20 1023.0
20220626004011 79 203 2.0 4.0 0.00 0.00 0.00 21 1023.2
20220626003512 79 230 2.0 4.0 0.00 0.00 0.00 19 1023.0
20220626003012 79 204 0.0 5.0 0.00 0.00 0.00 20 1023.1
20220626002514 79 259 2.0 6.0 0.00 0.00 0.00 20 1023.2
20220626002015 79 289 3.0 7.0 0.00 0.00 0.00 21 1023.0
20220626001511 79 258 4.0 8.0 0.00 0.00 0.00 20 1023.0
20220626001013 79 288 4.0 10.0 0.00 0.00 0.00 20 1023.0
20220626000515 79 286 5.0 10.0 0.00 0.00 0.00 20 1023.0
20220626000014 79 345 7.0 10.0 0.00 0.00 0.00 19 1023.0
20220625235513 79 337 5.0 8.0 0.00 0.00 0.00 19 1023.0
20220625235013 79 319 3.0 8.0 0.00 0.00 0.00 20 1023.1
20220625234513 79 276 3.0 9.0 0.00 0.00 0.00 19 1023.1
20220625234012 79 297 4.0 14.0 0.00 0.00 0.00 20 1023.1
20220625233515 80 306 10.0 14.0 0.00 0.00 0.00 19 1023.1
20220625233013 79 309 8.0 16.0 0.00 0.00 0.00 19 1023.1
20220625232511 80 304 12.0 16.0 0.00 0.00 0.00 18 1023.1
20220625232014 80 310 10.0 15.0 0.00 0.00 0.00 19 1023.0
20220625231515 82 328 6.0 13.0 0.00 0.00 0.00 18 1023.0
20220625231015 82 54 4.0 9.0 0.00 0.00 0.00 19 1023.1
20220625230514 83 70 2.0 6.0 0.00 0.00 0.00 18 1023.0
20220625230014 82 95 3.0 6.0 0.00 0.00 0.00 18 1023.0
20220625225512 81 60 3.0 7.0 0.00 0.00 0.00 18 1023.2
20220625225012 81 44 4.0 7.0 0.00 0.00 0.00 18 1023.1
20220625224520 81 108 3.0 7.0 0.00 0.00 0.00 18 1023.1
20220625224012 80 70 2.0 9.0 0.00 0.00 0.00 17 1023.2
20220625223512 80 161 2.0 9.0 0.00 0.00 0.00 20 1023.2
20220625223018 80 241 5.0 9.0 0.00 0.00 0.00 19 1023.3
20220625222512 80 257 2.0 9.0 0.00 0.00 0.00 19 1023.4
20220625222011 80 266 6.0 9.0 0.00 0.00 0.00 19 1023.4
20220625221517 81 240 2.0 8.0 0.00 0.00 0.00 19 1023.4
20220625221012 81 120 2.0 8.0 0.00 0.00 0.00 19 1023.5
20220625220515 82 242 4.0 7.0 0.00 0.00 0.00 20 1023.6
20220625220014 82 173 4.0 9.0 0.00 0.00 0.00 18 1023.5
20220625215513 84 228 3.0 9.0 0.00 0.00 0.00 17 1023.6
20220625215012 84 154 2.0 6.0 0.00 0.00 0.00 18 1023.8
20220625214514 83 94 1.0 7.0 0.00 0.00 0.00 18 1023.7
20220625214017 82 52 4.0 7.0 0.00 0.00 0.00 18 1023.8
20220625213516 81 329 3.0 6.0 0.00 0.00 0.00 19 1023.8
20220625213014 80 51 2.0 6.0 0.00 0.00 0.00 20 1023.8
20220625212510 80 304 2.0 10.0 0.00 0.00 0.00 21 1023.8
20220625212011 80 120 4.0 10.0 0.00 0.00 0.00 20 1024.0
20220625211514 79 98 3.0 7.0 0.00 0.00 0.00 22 1024.0
20220625211013 79 93 5.0 11.0 0.00 0.00 0.00 21 1024.1
20220625210513 79 278 4.0 11.0 0.00 0.00 0.00 20 1024.1
20220625210015 79 67 5.0 12.0 0.00 0.00 0.00 21 1024.1
20220625205514 79 351 5.0 12.0 0.00 0.00 0.00 20 1024.1
20220625205012 79 352 5.0 12.0 0.00 0.00 0.00 20 1024.3
20220625204514 80 340 3.0 8.0 0.00 0.00 0.00 20 1024.3
20220625204011 80 112 4.0 8.0 0.00 0.00 0.00 19 1024.2
20220625203510 80 205 3.0 8.0 0.00 0.00 0.00 19 1024.4
20220625203028 80 173 5.0 11.0 0.00 0.00 0.00 19 1024.4
20220625202514 80 75 7.0 14.0 0.00 0.00 0.00 21 1024.6
20220625202014 79 5 7.0 14.0 0.00 0.00 0.00 19 1024.7
20220625201514 80 23 9.0 15.0 0.00 0.00 0.00 19 1024.7
20220625201014 80 40 10.0 15.0 0.00 0.00 0.00 19 1024.8
20220625200514 79 330 7.0 16.0 0.00 0.00 0.00 21 1024.8
20220625200014 79 27 11.0 16.0 0.00 0.00 0.00 24 1024.8
20220625195513 79 348 8.0 14.0 0.00 0.00 0.00 23 1024.7
20220625195011 78 320 9.0 19.0 0.00 0.00 0.00 25 1024.8
20220625194510 77 333 9.0 19.0 0.00 0.00 0.00 25 1024.9
20220625194013 77 316 11.0 18.0 0.00 0.00 0.00 23 1025.0
20220625193515 78 345 12.0 18.0 0.00 0.00 0.00 24 1025.1
20220625193024 79 1 11.0 16.0 0.00 0.00 0.00 21 1024.8
20220625192511 79 338 9.0 16.0 0.00 0.00 0.00 20 1024.7
20220625192011 80 58 11.0 16.0 0.00 0.00 0.00 20 1024.7
20220625191514 80 22 11.0 16.0 0.00 0.00 0.00 21 1025.0
20220625191011 80 6 6.0 15.0 0.00 0.00 0.00 19 1025.1
20220625190511 79 355 9.0 15.0 0.00 0.00 0.00 21 1025.1
20220625190012 79 38 11.0 19.0 0.00 0.00 0.00 21 1025.2
20220625185514 81 18 11.0 19.0 0.00 0.00 0.00 20 1025.2
20220625185013 80 316 10.0 16.0 0.00 0.00 0.00 21 1025.2
20220625184514 79 313 11.0 15.0 0.00 0.00 0.00 22 1025.1
20220625184011 79 184 4.0 12.0 0.00 0.00 0.00 23 1025.0
20220625183514 80 245 7.0 12.0 0.00 0.00 0.00 23 1025.0
20220625183014 80 264 3.0 12.0 0.00 0.00 0.00 24 1025.2
20220625182512 79 253 4.0 16.0 0.00 0.00 0.00 24 1025.2
20220625182011 79 314 8.0 16.0 0.00 0.00 0.00 25 1025.1
20220625181514 78 305 5.0 10.0 0.00 0.00 0.00 25 1025.2
20220625181011 77 342 3.0 12.0 0.00 0.00 0.00 24 1025.1
20220625180516 78 319 4.0 12.0 0.00 0.00 0.00 24 1025.2
20220625180011 79 250 6.0 13.0 0.00 0.00 0.00 25 1025.1
20220625175515 79 237 8.0 15.0 0.00 0.00 0.00 22 1025.1